createdAt,value
2022-10-14T00:02:21.217Z,12.30
2022-10-14T00:04:49.016Z,12.30
2022-10-14T00:07:16.763Z,12.30
2022-10-14T00:09:44.578Z,12.30
2022-10-14T00:12:12.317Z,12.30
2022-10-14T00:14:40.044Z,12.40
2022-10-14T00:17:07.783Z,12.30
2022-10-14T00:19:36.849Z,12.40
2022-10-14T00:22:04.625Z,12.40
2022-10-14T00:24:32.367Z,12.40
2022-10-14T00:27:00.128Z,12.40
2022-10-14T00:29:27.880Z,12.50
2022-10-14T00:31:55.604Z,12.50
2022-10-14T00:34:23.459Z,12.50
2022-10-14T00:36:52.561Z,12.50
2022-10-14T00:39:20.382Z,12.50
2022-10-14T00:41:48.270Z,12.50
2022-10-14T00:44:53.397Z,12.50
2022-10-14T00:47:21.467Z,12.50
2022-10-14T00:49:49.506Z,12.50
2022-10-14T00:52:22.127Z,12.50
2022-10-14T00:54:52.900Z,12.50
2022-10-14T00:57:21.209Z,12.40
2022-10-14T00:59:49.438Z,12.40
2022-10-14T01:02:17.233Z,12.30
2022-10-14T01:04:46.492Z,12.20
2022-10-14T01:07:25.868Z,12.30
2022-10-14T01:10:05.118Z,12.30
2022-10-14T01:12:44.897Z,12.30
2022-10-14T01:15:22.677Z,12.30
2022-10-14T01:17:59.328Z,12.40
2022-10-14T01:20:48.211Z,12.40
2022-10-14T01:23:47.592Z,12.50
2022-10-14T01:26:48.859Z,12.50
2022-10-14T01:29:33.310Z,12.50
2022-10-14T01:32:07.376Z,12.50
2022-10-14T01:34:41.881Z,12.50
2022-10-14T01:37:14.374Z,12.50
2022-10-14T01:39:46.113Z,12.50
2022-10-14T01:42:19.351Z,12.50
2022-10-14T01:44:53.022Z,12.50
2022-10-14T01:47:24.710Z,12.50
2022-10-14T01:49:58.729Z,12.50
2022-10-14T01:52:32.092Z,12.50
2022-10-14T01:55:05.190Z,12.50
2022-10-14T01:57:36.429Z,12.60
2022-10-14T02:00:06.437Z,12.60
2022-10-14T02:19:27.412Z,12.50
2022-10-14T02:22:02.325Z,12.50
2022-10-14T02:24:35.797Z,12.50
2022-10-14T02:27:06.833Z,12.50
2022-10-14T02:29:35.888Z,12.50
2022-10-14T02:32:05.506Z,12.50
2022-10-14T02:34:36.891Z,12.50
2022-10-14T02:37:05.809Z,12.50
2022-10-14T02:39:37.472Z,12.50
2022-10-14T02:42:06.250Z,12.50
2022-10-14T02:44:34.018Z,12.50
2022-10-14T02:47:01.903Z,12.50
2022-10-14T02:49:29.648Z,12.50
2022-10-14T02:51:58.737Z,12.50
2022-10-14T02:54:26.509Z,12.40
2022-10-14T02:56:54.270Z,12.40
2022-10-14T02:59:22.021Z,12.40
2022-10-14T03:01:49.857Z,12.40
2022-10-14T03:04:17.633Z,12.40
2022-10-14T03:06:45.417Z,12.40
2022-10-14T03:09:14.492Z,12.40
2022-10-14T03:11:42.232Z,12.40
2022-10-14T03:14:09.996Z,12.40
2022-10-14T03:16:37.769Z,12.30
2022-10-14T03:19:05.520Z,12.40
2022-10-14T03:21:33.290Z,12.30
2022-10-14T03:24:01.472Z,12.40
2022-10-14T03:26:30.543Z,12.30
2022-10-14T03:28:58.330Z,12.30
2022-10-14T03:31:26.124Z,12.40
2022-10-14T03:33:53.925Z,12.30
2022-10-14T03:36:21.760Z,12.30
2022-10-14T03:38:49.513Z,12.30
2022-10-14T03:41:17.393Z,12.20
2022-10-14T03:43:46.481Z,12.30
2022-10-14T03:46:14.244Z,12.20
2022-10-14T03:48:41.957Z,12.20
2022-10-14T03:51:10.208Z,12.20
2022-10-14T03:53:38.322Z,12.30
2022-10-14T03:56:06.756Z,12.30
2022-10-14T03:58:34.527Z,12.20
2022-10-14T04:01:03.761Z,12.20
2022-10-14T04:03:31.517Z,12.20
2022-10-14T04:05:59.426Z,12.10
2022-10-14T04:08:27.283Z,12.10
2022-10-14T04:10:56.010Z,12.10
2022-10-14T04:13:23.965Z,12.10
2022-10-14T04:15:51.734Z,12.10
2022-10-14T04:18:20.832Z,12.10
2022-10-14T04:20:48.769Z,12.10
2022-10-14T04:23:16.528Z,12.10
2022-10-14T04:25:44.260Z,12.30
2022-10-14T04:28:11.997Z,12.10
2022-10-14T04:30:39.769Z,12.10
2022-10-14T04:33:07.517Z,12.10
2022-10-14T04:35:36.630Z,12.10
2022-10-14T04:38:04.396Z,12.20
2022-10-14T04:40:32.668Z,12.20
2022-10-14T04:43:00.571Z,12.20
2022-10-14T04:45:28.332Z,12.20
2022-10-14T04:47:56.105Z,12.20
2022-10-14T04:50:23.881Z,12.20
2022-10-14T04:52:52.996Z,12.20
2022-10-14T04:55:20.758Z,12.20
2022-10-14T04:57:48.512Z,12.10
2022-10-14T05:00:16.856Z,12.20
2022-10-14T05:02:44.757Z,12.10
2022-10-14T05:05:12.508Z,12.20
2022-10-14T05:07:40.246Z,12.10
2022-10-14T05:10:10.636Z,12.20
2022-10-14T05:12:39.802Z,12.10
2022-10-14T05:15:08.469Z,12.10
2022-10-14T05:17:37.525Z,12.10
2022-10-14T05:20:06.069Z,12.20
2022-10-14T05:22:33.985Z,12.20
2022-10-14T05:25:02.025Z,12.20
2022-10-14T05:27:31.121Z,12.10
2022-10-14T05:29:58.880Z,12.20
2022-10-14T05:32:26.625Z,12.20
2022-10-14T05:34:55.198Z,12.20
2022-10-14T05:37:22.997Z,12.20
2022-10-14T05:39:50.756Z,12.20
2022-10-14T05:42:18.780Z,12.30
2022-10-14T05:44:48.069Z,12.20
2022-10-14T05:47:15.828Z,12.30
2022-10-14T05:49:43.610Z,12.30
2022-10-14T05:52:11.384Z,12.30
2022-10-14T05:54:39.136Z,12.30
2022-10-14T05:57:06.920Z,12.30
2022-10-14T05:59:35.135Z,12.40
2022-10-14T06:02:04.280Z,12.40
2022-10-14T06:04:32.041Z,12.40
2022-10-14T06:07:00.103Z,12.40
2022-10-14T06:09:28.067Z,12.40
2022-10-14T06:11:55.818Z,12.50
2022-10-14T06:14:23.630Z,12.50
2022-10-14T06:16:51.928Z,12.50
2022-10-14T06:19:21.060Z,12.50
2022-10-14T06:21:48.825Z,12.50
2022-10-14T06:24:16.781Z,12.50
2022-10-14T06:26:44.596Z,12.50
2022-10-14T06:29:12.361Z,12.60
2022-10-14T06:31:40.128Z,12.60
2022-10-14T06:34:08.165Z,12.60
2022-10-14T06:36:37.801Z,12.60
2022-10-14T06:39:05.745Z,12.60
2022-10-14T06:41:33.752Z,12.70
2022-10-14T06:44:01.534Z,12.70
2022-10-14T06:46:30.718Z,12.70
2022-10-14T06:48:58.461Z,12.70
2022-10-14T06:51:26.310Z,12.70
2022-10-14T06:53:55.421Z,12.70
2022-10-14T06:56:23.182Z,12.80
2022-10-14T06:58:54.461Z,12.80
2022-10-14T07:01:22.886Z,12.80
2022-10-14T07:03:54.192Z,12.80
2022-10-14T07:06:24.525Z,12.90
2022-10-14T07:08:52.288Z,12.90
2022-10-14T07:11:21.368Z,12.90
2022-10-14T07:13:49.184Z,12.90
2022-10-14T07:16:17.000Z,12.90
2022-10-14T07:18:44.762Z,12.90
2022-10-14T07:21:12.528Z,12.90
2022-10-14T07:23:40.248Z,12.90
2022-10-14T07:26:08.484Z,12.90
2022-10-14T07:28:37.794Z,12.90
2022-10-14T07:31:07.504Z,13.00
2022-10-14T07:36:06.736Z,13.00
2022-10-14T07:38:34.911Z,13.10
2022-10-14T07:41:05.133Z,13.10
2022-10-14T07:43:33.400Z,13.20
2022-10-14T07:46:07.522Z,13.20
2022-10-14T07:48:55.842Z,13.20
2022-10-14T07:51:23.781Z,13.30
2022-10-14T07:53:52.850Z,13.30
2022-10-14T07:56:20.878Z,13.30
2022-10-14T07:58:48.883Z,13.30
2022-10-14T08:01:18.807Z,13.30
2022-10-14T08:03:48.209Z,13.30
2022-10-14T08:06:16.385Z,13.40
2022-10-14T08:08:44.355Z,13.40
2022-10-14T08:11:15.478Z,13.50
2022-10-14T08:13:46.196Z,13.40
2022-10-14T08:16:16.321Z,13.50
2022-10-14T08:18:46.178Z,13.50
2022-10-14T08:21:15.174Z,13.50
2022-10-14T08:23:43.353Z,13.60
2022-10-14T08:26:21.688Z,13.50
2022-10-14T08:28:50.246Z,13.60
2022-10-14T08:31:18.292Z,13.60
2022-10-14T08:33:47.905Z,13.70
2022-10-14T08:36:16.273Z,13.70
2022-10-14T08:38:44.041Z,13.70
2022-10-14T08:41:27.249Z,13.80
2022-10-14T08:44:06.684Z,13.80
2022-10-14T08:46:40.402Z,13.90
2022-10-14T08:49:16.072Z,13.80
2022-10-14T08:51:48.349Z,13.80
2022-10-14T08:54:24.759Z,13.90
2022-10-14T08:56:53.285Z,14.00
2022-10-14T08:59:22.177Z,14.10
2022-10-14T09:01:53.643Z,14.30
2022-10-14T09:04:22.837Z,14.40
2022-10-14T09:06:52.003Z,14.70
2022-10-14T09:09:24.640Z,14.90
2022-10-14T09:11:57.025Z,15.20
2022-10-14T09:14:30.256Z,15.60
2022-10-14T09:17:02.962Z,16.10
2022-10-14T09:19:35.633Z,16.50
2022-10-14T09:22:03.472Z,16.80
2022-10-14T09:24:35.426Z,16.80
2022-10-14T09:27:06.758Z,16.40
2022-10-14T09:29:41.532Z,16.00
2022-10-14T09:32:13.809Z,15.90
2022-10-14T09:34:48.020Z,16.00
2022-10-14T09:37:28.173Z,16.10
2022-10-14T09:39:59.417Z,16.20
2022-10-14T09:42:32.945Z,16.20
2022-10-14T09:45:10.885Z,16.20
2022-10-14T09:47:47.614Z,16.20
2022-10-14T09:50:24.893Z,16.40
2022-10-14T09:52:56.413Z,16.50
2022-10-14T09:55:25.394Z,16.60
2022-10-14T09:58:05.580Z,16.70
2022-10-14T10:00:36.642Z,16.70
2022-10-14T10:03:05.096Z,16.70
2022-10-14T10:05:35.590Z,16.80
2022-10-14T10:08:16.593Z,16.80
2022-10-14T10:11:03.543Z,16.80
2022-10-14T10:13:39.376Z,16.70
2022-10-14T10:16:09.382Z,16.80
2022-10-14T10:18:37.130Z,17.00
2022-10-14T10:21:15.522Z,17.10
2022-10-14T10:23:53.244Z,17.40
2022-10-14T10:26:25.695Z,17.80
2022-10-14T10:28:55.085Z,18.30
2022-10-14T10:31:35.146Z,18.80
2022-10-14T10:34:14.134Z,19.30
2022-10-14T10:36:48.444Z,19.90
2022-10-14T10:39:24.489Z,20.60
2022-10-14T10:42:05.996Z,20.40
2022-10-14T10:45:03.887Z,20.40
2022-10-14T10:47:38.380Z,20.80
2022-10-14T10:50:36.519Z,20.90
2022-10-14T10:53:42.042Z,20.90
2022-10-14T10:56:20.402Z,21.20
2022-10-14T10:59:03.159Z,21.60
2022-10-14T11:01:44.668Z,21.80
2022-10-14T11:04:26.995Z,21.20
2022-10-14T11:07:22.784Z,20.40
2022-10-14T11:10:18.874Z,19.70
2022-10-14T11:12:55.042Z,19.20
2022-10-14T11:15:35.152Z,18.90
2022-10-14T11:18:08.510Z,18.50
2022-10-14T11:20:48.458Z,18.40
2022-10-14T11:23:46.024Z,18.40
2022-10-14T11:26:41.338Z,19.00
2022-10-14T11:29:20.660Z,19.30
2022-10-14T11:31:57.485Z,19.20
2022-10-14T11:34:39.340Z,19.20
2022-10-14T11:37:17.270Z,19.40
2022-10-14T11:39:55.467Z,19.70
2022-10-14T11:42:44.412Z,20.10
2022-10-14T11:45:36.093Z,20.40
2022-10-14T11:48:13.622Z,20.10
2022-10-14T11:50:47.136Z,19.90
2022-10-14T11:53:21.172Z,19.90
2022-10-14T11:55:56.238Z,20.20
2022-10-14T11:58:27.932Z,20.50
2022-10-14T12:01:16.184Z,20.60
2022-10-14T12:03:52.649Z,20.40
2022-10-14T12:06:25.443Z,19.80
2022-10-14T12:08:56.478Z,19.30
2022-10-14T12:11:30.624Z,18.90
2022-10-14T12:14:07.004Z,18.60
2022-10-14T12:16:34.954Z,18.40
2022-10-14T12:19:03.076Z,18.20
2022-10-14T12:21:36.597Z,18.10
2022-10-14T12:24:08.044Z,18.00
2022-10-14T12:26:54.746Z,17.90
2022-10-14T12:29:26.128Z,17.90
2022-10-14T12:32:19.481Z,17.90
2022-10-14T12:34:48.476Z,18.00
2022-10-14T12:37:45.845Z,18.00
2022-10-14T12:40:30.420Z,18.00
2022-10-14T12:43:15.050Z,17.80
2022-10-14T12:45:54.165Z,17.80
2022-10-14T12:48:24.481Z,17.70
2022-10-14T12:50:58.281Z,17.60
2022-10-14T12:53:28.576Z,17.50
2022-10-14T12:55:59.172Z,17.50
2022-10-14T12:58:34.083Z,17.50
2022-10-14T13:01:06.725Z,17.50
2022-10-14T13:03:46.393Z,17.40
2022-10-14T13:06:36.255Z,17.40
2022-10-14T13:09:35.699Z,17.30
2022-10-14T13:12:43.728Z,17.20
2022-10-14T13:15:38.196Z,17.10
2022-10-14T13:18:35.920Z,17.10
2022-10-14T13:21:04.752Z,17.00
2022-10-14T13:23:43.313Z,17.00
2022-10-14T13:26:20.874Z,16.90
2022-10-14T13:29:00.192Z,16.90
2022-10-14T13:31:37.264Z,16.90
2022-10-14T13:34:21.117Z,16.90
2022-10-14T13:37:02.772Z,16.90
2022-10-14T13:39:33.646Z,16.90
2022-10-14T13:42:02.132Z,16.80
2022-10-14T13:44:30.301Z,16.80
2022-10-14T13:46:58.289Z,16.80
2022-10-14T13:49:35.586Z,16.80
2022-10-14T13:52:06.525Z,16.80
2022-10-14T13:54:34.420Z,16.70
2022-10-14T14:02:40.924Z,16.70
2022-10-14T14:05:16.601Z,16.70
2022-10-14T14:10:36.357Z,16.60
2022-10-14T14:13:06.970Z,16.60
2022-10-14T14:15:35.545Z,16.60
2022-10-14T14:18:03.323Z,16.50
2022-10-14T14:20:33.963Z,16.50
2022-10-14T14:23:01.772Z,16.50
2022-10-14T14:25:34.604Z,16.50
2022-10-14T14:28:05.951Z,16.50
2022-10-14T14:30:35.718Z,16.50
2022-10-14T14:33:05.969Z,16.50
2022-10-14T14:35:35.169Z,16.50
2022-10-14T14:38:03.612Z,16.50
2022-10-14T14:40:31.948Z,16.50
2022-10-14T14:43:01.435Z,16.50
2022-10-14T14:45:31.249Z,16.60
2022-10-14T14:48:02.999Z,16.60
2022-10-14T14:50:37.361Z,16.60
2022-10-14T14:53:12.057Z,16.60
2022-10-14T14:55:47.514Z,16.60
2022-10-14T14:58:24.098Z,16.60
2022-10-14T15:00:54.437Z,16.60
2022-10-14T15:03:23.776Z,16.50
2022-10-14T15:05:56.945Z,16.50
2022-10-14T15:08:27.062Z,16.40
2022-10-14T15:10:56.585Z,16.40
2022-10-14T15:13:30.714Z,16.40
2022-10-14T15:15:58.618Z,16.30
2022-10-14T15:18:28.481Z,16.30
2022-10-14T15:21:15.685Z,16.30
2022-10-14T15:23:46.916Z,16.30
2022-10-14T15:26:30.338Z,16.30
2022-10-14T15:29:22.370Z,16.20
2022-10-14T15:32:07.274Z,16.20
2022-10-14T15:34:35.666Z,16.20
2022-10-14T15:37:04.874Z,16.20
2022-10-14T15:39:32.635Z,16.10
2022-10-14T15:42:00.528Z,16.10
2022-10-14T15:44:28.272Z,16.10
2022-10-14T15:47:15.162Z,16.00
2022-10-14T15:49:43.520Z,16.00
2022-10-14T15:52:15.521Z,16.00
2022-10-14T15:54:43.884Z,16.00
2022-10-14T15:57:14.037Z,16.00
2022-10-14T15:59:44.502Z,15.90
2022-10-14T16:02:18.805Z,16.00
2022-10-14T16:05:07.329Z,16.00
2022-10-14T16:07:35.990Z,15.90
2022-10-14T16:10:04.113Z,15.90
2022-10-14T16:12:31.900Z,15.90
2022-10-14T16:15:01.532Z,15.90
2022-10-14T16:17:29.421Z,15.80
2022-10-14T16:19:57.585Z,15.80
2022-10-14T16:22:25.333Z,15.80
2022-10-14T16:24:54.425Z,15.80
2022-10-14T16:27:24.601Z,15.80
2022-10-14T16:29:52.538Z,15.80
2022-10-14T16:32:20.293Z,15.80
2022-10-14T16:34:48.050Z,15.80
2022-10-14T16:37:16.703Z,15.70
2022-10-14T16:39:44.637Z,15.80
2022-10-14T16:42:13.736Z,15.70
2022-10-14T16:44:41.505Z,15.70
2022-10-14T16:47:20.674Z,15.70
2022-10-14T16:49:51.769Z,15.70
2022-10-14T16:52:20.158Z,15.70
2022-10-14T16:54:48.305Z,15.70
2022-10-14T16:57:17.556Z,15.70
2022-10-14T16:59:45.327Z,15.60
2022-10-14T17:02:16.253Z,15.60
2022-10-14T17:04:46.274Z,15.60
2022-10-14T17:07:14.869Z,15.60
2022-10-14T17:09:42.646Z,15.60
2022-10-14T17:12:13.715Z,15.60
2022-10-14T17:14:43.865Z,15.60
2022-10-14T17:17:12.927Z,15.60
2022-10-14T17:19:40.772Z,15.60
2022-10-14T17:22:08.509Z,15.60
2022-10-14T17:24:36.281Z,15.60
2022-10-14T17:27:04.998Z,15.60
2022-10-14T17:29:33.328Z,15.70
2022-10-14T17:32:02.420Z,15.60
2022-10-14T17:34:31.671Z,15.60
2022-10-14T17:36:59.954Z,15.60
2022-10-14T17:39:29.580Z,15.60
2022-10-14T17:41:57.686Z,15.60
2022-10-14T17:44:25.693Z,15.50
2022-10-14T17:46:53.956Z,15.40
2022-10-14T17:49:23.285Z,15.40
2022-10-14T17:51:51.017Z,15.30
2022-10-14T17:54:18.879Z,15.20
2022-10-14T17:56:46.658Z,15.10
2022-10-14T17:59:14.513Z,15.00
2022-10-14T18:04:32.240Z,14.80
2022-10-14T18:07:00.022Z,14.80
2022-10-14T18:09:27.881Z,14.80
2022-10-14T18:12:12.684Z,14.80
2022-10-14T18:14:40.959Z,14.70
2022-10-14T18:17:12.062Z,14.70
2022-10-14T18:19:41.712Z,14.70
2022-10-14T18:22:10.843Z,14.70
2022-10-14T18:24:39.158Z,14.60
2022-10-14T18:27:07.249Z,14.60
2022-10-14T18:29:35.119Z,14.60
2022-10-14T18:32:02.900Z,14.60
2022-10-14T18:34:30.797Z,14.50
2022-10-14T18:36:59.885Z,14.50
2022-10-14T18:39:27.807Z,14.50
2022-10-14T18:41:55.553Z,14.60
2022-10-14T18:44:23.349Z,14.50
2022-10-14T18:46:51.079Z,14.50
2022-10-14T18:49:18.885Z,14.60
2022-10-14T18:51:46.951Z,14.60
2022-10-14T18:54:17.784Z,14.60
2022-10-14T18:56:47.045Z,14.60
2022-10-14T18:59:17.625Z,14.60
2022-10-14T19:01:46.287Z,14.60
2022-10-14T19:04:16.025Z,14.60
2022-10-14T19:06:45.792Z,14.60
2022-10-14T19:09:14.385Z,14.60
2022-10-14T19:11:44.546Z,14.60
2022-10-14T19:14:14.170Z,14.60
2022-10-14T19:16:42.671Z,14.60
2022-10-14T19:19:15.078Z,14.50
2022-10-14T19:21:43.351Z,14.50
2022-10-14T19:24:12.370Z,14.50
2022-10-14T19:26:42.488Z,14.50
2022-10-14T19:29:13.396Z,14.50
2022-10-14T19:31:41.565Z,14.50
2022-10-14T19:34:12.453Z,14.40
2022-10-14T19:36:40.936Z,14.40
2022-10-14T19:39:11.996Z,14.40
2022-10-14T19:41:43.141Z,14.40
2022-10-14T19:44:13.224Z,14.40
2022-10-14T19:46:41.506Z,14.40
2022-10-14T19:49:11.673Z,14.50
2022-10-14T19:51:39.676Z,14.40
2022-10-14T19:54:07.699Z,14.50
2022-10-14T19:56:35.484Z,14.40
2022-10-14T19:59:03.309Z,14.40
2022-10-14T20:01:32.745Z,14.40
2022-10-14T20:04:01.924Z,14.40
2022-10-14T20:06:33.131Z,14.40
2022-10-14T20:09:01.309Z,14.40
2022-10-14T20:11:29.385Z,14.40
2022-10-14T20:13:57.213Z,14.40
2022-10-14T20:16:25.141Z,14.40
2022-10-14T20:18:54.206Z,14.30
2022-10-14T20:21:21.989Z,14.30
2022-10-14T20:23:49.786Z,14.40
2022-10-14T20:26:19.644Z,14.30
2022-10-14T20:28:48.768Z,14.30
2022-10-14T20:31:18.175Z,14.30
2022-10-14T20:33:46.375Z,14.30
2022-10-14T20:36:17.411Z,14.30
2022-10-14T20:38:45.550Z,14.20
2022-10-14T20:41:15.935Z,14.30
2022-10-14T20:43:44.640Z,14.30
2022-10-14T20:46:13.275Z,14.30
2022-10-14T20:48:41.141Z,14.30
2022-10-14T20:51:10.844Z,14.30
2022-10-14T20:56:11.946Z,14.30
2022-10-14T20:58:40.145Z,14.30
2022-10-14T21:01:09.696Z,14.30
2022-10-14T21:03:37.653Z,14.30
2022-10-14T21:06:09.479Z,14.30
2022-10-14T21:08:39.466Z,14.30
2022-10-14T21:11:13.675Z,14.30
2022-10-14T21:13:45.374Z,14.30
2022-10-14T21:16:20.137Z,14.20
2022-10-14T21:18:49.115Z,14.30
2022-10-14T21:21:18.885Z,14.20
2022-10-14T21:23:47.976Z,14.20
2022-10-14T21:26:15.805Z,14.30
2022-10-14T21:28:44.087Z,14.20
2022-10-14T21:31:17.450Z,14.30
2022-10-14T21:33:46.988Z,14.50
2022-10-14T21:36:16.295Z,14.20
2022-10-14T21:38:44.294Z,14.30
2022-10-14T21:41:13.432Z,14.30
2022-10-14T21:43:41.292Z,14.20
2022-10-14T21:46:11.263Z,14.20
2022-10-14T21:48:39.352Z,14.20
2022-10-14T21:51:09.025Z,14.20
2022-10-14T21:53:36.795Z,14.30
2022-10-14T21:56:04.756Z,14.20
2022-10-14T21:58:35.072Z,14.20
2022-10-14T22:01:04.532Z,14.20
2022-10-14T22:03:32.704Z,14.20
2022-10-14T22:06:01.305Z,14.20
2022-10-14T22:08:33.288Z,14.20
2022-10-14T22:11:01.245Z,14.20
2022-10-14T22:13:29.916Z,14.10
2022-10-14T22:15:59.000Z,14.10
2022-10-14T22:18:26.777Z,14.10
2022-10-14T22:21:03.718Z,14.20
2022-10-14T22:23:31.766Z,14.10
2022-10-14T22:26:01.217Z,14.10
2022-10-14T22:28:30.461Z,14.10
2022-10-14T22:31:05.248Z,14.10
2022-10-14T22:33:35.108Z,14.10
2022-10-14T22:36:07.705Z,14.00
2022-10-14T22:38:36.325Z,14.00
2022-10-14T22:41:05.376Z,14.00
2022-10-14T22:43:33.379Z,14.00
2022-10-14T22:46:04.365Z,14.10
2022-10-14T22:48:32.621Z,14.00
2022-10-14T22:51:03.308Z,14.10
2022-10-14T22:53:31.315Z,14.00
2022-10-14T22:55:59.451Z,14.10
2022-10-14T22:58:27.387Z,14.10
2022-10-14T23:00:55.517Z,14.00
2022-10-14T23:03:25.441Z,14.00
2022-10-14T23:05:53.196Z,14.00
2022-10-14T23:08:21.103Z,14.00
2022-10-14T23:10:48.864Z,14.00
2022-10-14T23:13:16.584Z,14.00
2022-10-14T23:15:44.333Z,14.00
2022-10-14T23:18:12.126Z,14.00
2022-10-14T23:20:41.234Z,14.00
2022-10-14T23:23:08.992Z,14.00
2022-10-14T23:25:40.299Z,14.00
2022-10-14T23:28:08.083Z,14.00
2022-10-14T23:30:35.866Z,13.90
2022-10-14T23:33:03.792Z,13.90
2022-10-14T23:35:31.579Z,13.90
2022-10-14T23:38:00.666Z,14.00
2022-10-14T23:40:28.414Z,13.90
2022-10-14T23:42:56.237Z,13.90
2022-10-14T23:45:24.005Z,13.90
2022-10-14T23:47:51.867Z,13.90
2022-10-14T23:50:19.662Z,13.90
2022-10-14T23:52:47.482Z,13.90
2022-10-14T23:55:16.783Z,13.90
2022-10-14T23:57:44.560Z,13.90
